sensor_id;sensor_type;location;lat;lon;timestamp;P1;durP1;ratioP1;P2;durP2;ratioP2
20870;SDS011;10595;51.218;3.452;2023-02-28T00:01:25;6.80;;;4.67;;
20870;SDS011;10595;51.218;3.452;2023-02-28T00:03:51;7.70;;;5.13;;
20870;SDS011;10595;51.218;3.452;2023-02-28T00:06:17;8.17;;;5.17;;
20870;SDS011;10595;51.218;3.452;2023-02-28T00:08:43;9.43;;;4.80;;
20870;SDS011;10595;51.218;3.452;2023-02-28T00:11:11;8.67;;;4.90;;
20870;SDS011;10595;51.218;3.452;2023-02-28T00:13:39;8.77;;;5.20;;
20870;SDS011;10595;51.218;3.452;2023-02-28T00:16:06;8.90;;;6.40;;
20870;SDS011;10595;51.218;3.452;2023-02-28T00:18:32;11.77;;;6.10;;
20870;SDS011;10595;51.218;3.452;2023-02-28T00:20:58;9.13;;;6.03;;
20870;SDS011;10595;51.218;3.452;2023-02-28T00:23:25;11.47;;;6.10;;
20870;SDS011;10595;51.218;3.452;2023-02-28T00:25:51;11.00;;;6.40;;
20870;SDS011;10595;51.218;3.452;2023-02-28T00:28:19;10.10;;;5.67;;
20870;SDS011;10595;51.218;3.452;2023-02-28T00:30:45;9.73;;;5.70;;
20870;SDS011;10595;51.218;3.452;2023-02-28T00:33:11;8.97;;;5.60;;
20870;SDS011;10595;51.218;3.452;2023-02-28T00:35:37;8.97;;;5.27;;
20870;SDS011;10595;51.218;3.452;2023-02-28T00:38:03;8.33;;;5.77;;
20870;SDS011;10595;51.218;3.452;2023-02-28T00:40:29;6.50;;;5.40;;
20870;SDS011;10595;51.218;3.452;2023-02-28T00:42:55;7.90;;;5.50;;
20870;SDS011;10595;51.218;3.452;2023-02-28T00:45:21;11.87;;;6.37;;
20870;SDS011;10595;51.218;3.452;2023-02-28T00:47:47;9.40;;;6.13;;
20870;SDS011;10595;51.218;3.452;2023-02-28T00:50:18;7.67;;;5.57;;
20870;SDS011;10595;51.218;3.452;2023-02-28T00:52:45;8.57;;;5.17;;
20870;SDS011;10595;51.218;3.452;2023-02-28T00:55:11;7.83;;;5.30;;
20870;SDS011;10595;51.218;3.452;2023-02-28T00:57:37;9.00;;;5.57;;
20870;SDS011;10595;51.218;3.452;2023-02-28T01:00:03;12.03;;;5.60;;
20870;SDS011;10595;51.218;3.452;2023-02-28T01:02:30;8.30;;;5.40;;
20870;SDS011;10595;51.218;3.452;2023-02-28T01:04:56;6.10;;;5.33;;
20870;SDS011;10595;51.218;3.452;2023-02-28T01:07:22;7.60;;;4.97;;
20870;SDS011;10595;51.218;3.452;2023-02-28T01:09:48;7.73;;;5.40;;
20870;SDS011;10595;51.218;3.452;2023-02-28T01:12:14;8.47;;;5.03;;
20870;SDS011;10595;51.218;3.452;2023-02-28T01:14:40;7.37;;;4.97;;
20870;SDS011;10595;51.218;3.452;2023-02-28T01:17:06;6.70;;;4.93;;
20870;SDS011;10595;51.218;3.452;2023-02-28T01:19:32;6.27;;;4.60;;
20870;SDS011;10595;51.218;3.452;2023-02-28T01:22:02;7.27;;;4.73;;
20870;SDS011;10595;51.218;3.452;2023-02-28T01:24:28;7.67;;;4.93;;
20870;SDS011;10595;51.218;3.452;2023-02-28T01:26:54;8.13;;;5.20;;
20870;SDS011;10595;51.218;3.452;2023-02-28T01:29:20;8.30;;;4.97;;
20870;SDS011;10595;51.218;3.452;2023-02-28T01:31:46;8.77;;;5.10;;
20870;SDS011;10595;51.218;3.452;2023-02-28T01:34:12;8.90;;;5.40;;
20870;SDS011;10595;51.218;3.452;2023-02-28T01:36:38;8.20;;;5.00;;
20870;SDS011;10595;51.218;3.452;2023-02-28T01:39:04;7.97;;;5.20;;
20870;SDS011;10595;51.218;3.452;2023-02-28T01:41:32;7.40;;;4.93;;
20870;SDS011;10595;51.218;3.452;2023-02-28T01:43:59;7.87;;;5.37;;
20870;SDS011;10595;51.218;3.452;2023-02-28T01:46:28;8.23;;;5.43;;
20870;SDS011;10595;51.218;3.452;2023-02-28T01:48:57;8.50;;;5.03;;
20870;SDS011;10595;51.218;3.452;2023-02-28T01:51:29;6.40;;;4.93;;
20870;SDS011;10595;51.218;3.452;2023-02-28T01:54:02;10.40;;;6.07;;
20870;SDS011;10595;51.218;3.452;2023-02-28T01:56:30;8.23;;;5.50;;
20870;SDS011;10595;51.218;3.452;2023-02-28T01:58:56;10.10;;;5.33;;
20870;SDS011;10595;51.218;3.452;2023-02-28T02:01:23;8.93;;;5.17;;
20870;SDS011;10595;51.218;3.452;2023-02-28T02:03:50;9.70;;;5.77;;
20870;SDS011;10595;51.218;3.452;2023-02-28T02:06:21;12.83;;;5.83;;
20870;SDS011;10595;51.218;3.452;2023-02-28T02:08:47;7.97;;;5.83;;
20870;SDS011;10595;51.218;3.452;2023-02-28T02:11:13;8.43;;;5.30;;
20870;SDS011;10595;51.218;3.452;2023-02-28T02:13:47;13.53;;;6.60;;
20870;SDS011;10595;51.218;3.452;2023-02-28T02:16:42;11.77;;;6.47;;
20870;SDS011;10595;51.218;3.452;2023-02-28T02:32:40;12.33;;;6.27;;
20870;SDS011;10595;51.218;3.452;2023-02-28T02:35:13;9.00;;;6.40;;
20870;SDS011;10595;51.218;3.452;2023-02-28T02:42:52;12.20;;;6.40;;
20870;SDS011;10595;51.218;3.452;2023-02-28T02:48:01;10.90;;;6.60;;
20870;SDS011;10595;51.218;3.452;2023-02-28T02:50:30;10.93;;;6.57;;
20870;SDS011;10595;51.218;3.452;2023-02-28T02:52:57;10.17;;;6.43;;
20870;SDS011;10595;51.218;3.452;2023-02-28T02:55:24;10.97;;;6.70;;
20870;SDS011;10595;51.218;3.452;2023-02-28T02:57:54;12.63;;;6.50;;
20870;SDS011;10595;51.218;3.452;2023-02-28T03:00:24;9.07;;;6.80;;
20870;SDS011;10595;51.218;3.452;2023-02-28T03:02:52;11.10;;;6.73;;
20870;SDS011;10595;51.218;3.452;2023-02-28T03:05:21;13.60;;;6.80;;
20870;SDS011;10595;51.218;3.452;2023-02-28T03:07:49;10.10;;;6.27;;
20870;SDS011;10595;51.218;3.452;2023-02-28T03:12:57;11.40;;;6.60;;
20870;SDS011;10595;51.218;3.452;2023-02-28T03:15:26;13.70;;;6.27;;
20870;SDS011;10595;51.218;3.452;2023-02-28T03:18:08;12.03;;;6.40;;
20870;SDS011;10595;51.218;3.452;2023-02-28T03:25:39;9.33;;;6.13;;
20870;SDS011;10595;51.218;3.452;2023-02-28T03:28:15;10.57;;;6.80;;
20870;SDS011;10595;51.218;3.452;2023-02-28T03:35:58;9.63;;;6.07;;
20870;SDS011;10595;51.218;3.452;2023-02-28T03:38:30;12.60;;;6.73;;
20870;SDS011;10595;51.218;3.452;2023-02-28T03:41:02;10.27;;;6.30;;
20870;SDS011;10595;51.218;3.452;2023-02-28T03:43:32;9.67;;;5.77;;
20870;SDS011;10595;51.218;3.452;2023-02-28T03:45:59;9.03;;;6.17;;
20870;SDS011;10595;51.218;3.452;2023-02-28T03:48:30;14.00;;;6.80;;
20870;SDS011;10595;51.218;3.452;2023-02-28T03:50:57;11.13;;;6.90;;
20870;SDS011;10595;51.218;3.452;2023-02-28T03:53:26;12.80;;;7.13;;
20870;SDS011;10595;51.218;3.452;2023-02-28T03:55:54;11.53;;;6.33;;
20870;SDS011;10595;51.218;3.452;2023-02-28T04:00:53;11.70;;;6.60;;
20870;SDS011;10595;51.218;3.452;2023-02-28T04:03:21;9.90;;;6.87;;
20870;SDS011;10595;51.218;3.452;2023-02-28T04:05:48;9.53;;;6.50;;
20870;SDS011;10595;51.218;3.452;2023-02-28T04:08:15;11.33;;;6.60;;
20870;SDS011;10595;51.218;3.452;2023-02-28T04:10:42;10.10;;;6.10;;
20870;SDS011;10595;51.218;3.452;2023-02-28T04:13:09;10.80;;;6.60;;
20870;SDS011;10595;51.218;3.452;2023-02-28T04:15:35;11.23;;;6.47;;
20870;SDS011;10595;51.218;3.452;2023-02-28T04:18:01;11.13;;;6.70;;
20870;SDS011;10595;51.218;3.452;2023-02-28T04:20:27;9.70;;;6.23;;
20870;SDS011;10595;51.218;3.452;2023-02-28T04:22:53;11.17;;;6.27;;
20870;SDS011;10595;51.218;3.452;2023-02-28T04:25:19;9.60;;;7.17;;
20870;SDS011;10595;51.218;3.452;2023-02-28T04:27:45;10.90;;;6.43;;
20870;SDS011;10595;51.218;3.452;2023-02-28T04:30:11;9.07;;;6.33;;
20870;SDS011;10595;51.218;3.452;2023-02-28T04:32:37;10.70;;;6.43;;
20870;SDS011;10595;51.218;3.452;2023-02-28T04:35:04;10.47;;;6.97;;
20870;SDS011;10595;51.218;3.452;2023-02-28T04:37:30;11.73;;;6.33;;
20870;SDS011;10595;51.218;3.452;2023-02-28T04:39:59;11.37;;;6.40;;
20870;SDS011;10595;51.218;3.452;2023-02-28T04:42:25;10.27;;;6.90;;
20870;SDS011;10595;51.218;3.452;2023-02-28T04:44:51;8.27;;;6.07;;
20870;SDS011;10595;51.218;3.452;2023-02-28T04:47:17;11.40;;;6.50;;
20870;SDS011;10595;51.218;3.452;2023-02-28T04:49:43;11.10;;;6.50;;
20870;SDS011;10595;51.218;3.452;2023-02-28T04:52:09;8.20;;;5.83;;
20870;SDS011;10595;51.218;3.452;2023-02-28T04:54:36;6.13;;;5.47;;
20870;SDS011;10595;51.218;3.452;2023-02-28T04:57:04;9.43;;;5.83;;
20870;SDS011;10595;51.218;3.452;2023-02-28T04:59:30;8.33;;;5.77;;
20870;SDS011;10595;51.218;3.452;2023-02-28T05:01:57;9.00;;;6.50;;
20870;SDS011;10595;51.218;3.452;2023-02-28T05:04:23;9.80;;;6.17;;
20870;SDS011;10595;51.218;3.452;2023-02-28T05:06:49;8.87;;;6.43;;
20870;SDS011;10595;51.218;3.452;2023-02-28T05:09:15;10.07;;;6.57;;
20870;SDS011;10595;51.218;3.452;2023-02-28T05:11:41;12.30;;;6.47;;
20870;SDS011;10595;51.218;3.452;2023-02-28T05:14:11;9.53;;;6.10;;
20870;SDS011;10595;51.218;3.452;2023-02-28T05:16:37;7.50;;;5.77;;
20870;SDS011;10595;51.218;3.452;2023-02-28T05:19:04;12.40;;;6.63;;
20870;SDS011;10595;51.218;3.452;2023-02-28T05:21:31;9.90;;;6.77;;
20870;SDS011;10595;51.218;3.452;2023-02-28T05:23:59;13.07;;;8.13;;
20870;SDS011;10595;51.218;3.452;2023-02-28T05:26:25;10.30;;;7.60;;
20870;SDS011;10595;51.218;3.452;2023-02-28T05:28:52;13.00;;;8.30;;
20870;SDS011;10595;51.218;3.452;2023-02-28T05:31:18;9.97;;;7.10;;
20870;SDS011;10595;51.218;3.452;2023-02-28T05:33:44;9.17;;;7.00;;
20870;SDS011;10595;51.218;3.452;2023-02-28T05:36:10;13.03;;;6.63;;
20870;SDS011;10595;51.218;3.452;2023-02-28T05:38:36;10.40;;;6.80;;
20870;SDS011;10595;51.218;3.452;2023-02-28T05:41:06;10.87;;;7.20;;
20870;SDS011;10595;51.218;3.452;2023-02-28T05:43:35;10.93;;;6.87;;
20870;SDS011;10595;51.218;3.452;2023-02-28T05:46:02;12.10;;;7.97;;
20870;SDS011;10595;51.218;3.452;2023-02-28T05:48:28;12.53;;;7.60;;
20870;SDS011;10595;51.218;3.452;2023-02-28T05:50:54;10.83;;;7.87;;
20870;SDS011;10595;51.218;3.452;2023-02-28T05:53:22;13.07;;;7.77;;
20870;SDS011;10595;51.218;3.452;2023-02-28T05:55:48;14.83;;;8.23;;
20870;SDS011;10595;51.218;3.452;2023-02-28T05:58:14;13.40;;;7.80;;
20870;SDS011;10595;51.218;3.452;2023-02-28T06:00:41;9.53;;;8.07;;
20870;SDS011;10595;51.218;3.452;2023-02-28T06:03:07;11.57;;;8.53;;
20870;SDS011;10595;51.218;3.452;2023-02-28T06:05:33;11.63;;;8.17;;
20870;SDS011;10595;51.218;3.452;2023-02-28T06:07:59;11.53;;;8.20;;
20870;SDS011;10595;51.218;3.452;2023-02-28T06:10:25;11.97;;;7.63;;
20870;SDS011;10595;51.218;3.452;2023-02-28T06:12:51;10.97;;;7.80;;
20870;SDS011;10595;51.218;3.452;2023-02-28T06:15:17;13.00;;;8.67;;
20870;SDS011;10595;51.218;3.452;2023-02-28T06:17:44;27.37;;;14.13;;
20870;SDS011;10595;51.218;3.452;2023-02-28T06:20:10;20.30;;;11.83;;
20870;SDS011;10595;51.218;3.452;2023-02-28T06:22:40;12.90;;;8.97;;
20870;SDS011;10595;51.218;3.452;2023-02-28T06:25:06;69.63;;;29.03;;
20870;SDS011;10595;51.218;3.452;2023-02-28T06:27:32;31.60;;;15.60;;
20870;SDS011;10595;51.218;3.452;2023-02-28T06:29:58;53.13;;;17.70;;
20870;SDS011;10595;51.218;3.452;2023-02-28T06:32:24;36.10;;;13.97;;
20870;SDS011;10595;51.218;3.452;2023-02-28T06:34:50;27.83;;;12.33;;
20870;SDS011;10595;51.218;3.452;2023-02-28T06:37:17;17.90;;;9.60;;
20870;SDS011;10595;51.218;3.452;2023-02-28T06:39:43;12.70;;;7.53;;
20870;SDS011;10595;51.218;3.452;2023-02-28T06:42:09;13.00;;;7.43;;
20870;SDS011;10595;51.218;3.452;2023-02-28T06:44:35;10.70;;;7.00;;
20870;SDS011;10595;51.218;3.452;2023-02-28T06:47:02;12.80;;;8.10;;
20870;SDS011;10595;51.218;3.452;2023-02-28T06:49:29;9.73;;;7.00;;
20870;SDS011;10595;51.218;3.452;2023-02-28T06:51:55;10.17;;;7.60;;
20870;SDS011;10595;51.218;3.452;2023-02-28T06:54:21;9.37;;;6.90;;
20870;SDS011;10595;51.218;3.452;2023-02-28T06:56:47;12.30;;;6.67;;
20870;SDS011;10595;51.218;3.452;2023-02-28T06:59:13;10.83;;;6.27;;
20870;SDS011;10595;51.218;3.452;2023-02-28T07:01:39;9.37;;;5.73;;
20870;SDS011;10595;51.218;3.452;2023-02-28T07:04:06;10.27;;;6.37;;
20870;SDS011;10595;51.218;3.452;2023-02-28T07:06:32;9.03;;;5.83;;
20870;SDS011;10595;51.218;3.452;2023-02-28T07:08:58;11.37;;;6.17;;
20870;SDS011;10595;51.218;3.452;2023-02-28T07:11:25;9.23;;;5.90;;
20870;SDS011;10595;51.218;3.452;2023-02-28T07:13:52;9.43;;;5.57;;
20870;SDS011;10595;51.218;3.452;2023-02-28T07:16:19;10.00;;;6.13;;
20870;SDS011;10595;51.218;3.452;2023-02-28T07:18:45;11.87;;;5.77;;
20870;SDS011;10595;51.218;3.452;2023-02-28T07:21:11;10.07;;;5.50;;
20870;SDS011;10595;51.218;3.452;2023-02-28T07:23:38;8.57;;;5.67;;
20870;SDS011;10595;51.218;3.452;2023-02-28T07:26:05;6.00;;;4.63;;
20870;SDS011;10595;51.218;3.452;2023-02-28T07:28:31;8.67;;;4.93;;
20870;SDS011;10595;51.218;3.452;2023-02-28T07:31:02;8.77;;;5.40;;
20870;SDS011;10595;51.218;3.452;2023-02-28T07:33:28;7.93;;;5.67;;
20870;SDS011;10595;51.218;3.452;2023-02-28T07:35:59;10.17;;;4.70;;
20870;SDS011;10595;51.218;3.452;2023-02-28T07:38:26;4.90;;;4.07;;
20870;SDS011;10595;51.218;3.452;2023-02-28T07:40:52;7.67;;;4.43;;
20870;SDS011;10595;51.218;3.452;2023-02-28T07:43:18;7.53;;;4.00;;
20870;SDS011;10595;51.218;3.452;2023-02-28T07:45:44;6.80;;;4.90;;
20870;SDS011;10595;51.218;3.452;2023-02-28T07:48:10;7.10;;;4.30;;
20870;SDS011;10595;51.218;3.452;2023-02-28T07:50:36;6.23;;;4.20;;
20870;SDS011;10595;51.218;3.452;2023-02-28T07:53:02;6.57;;;3.50;;
20870;SDS011;10595;51.218;3.452;2023-02-28T07:55:29;5.70;;;3.23;;
20870;SDS011;10595;51.218;3.452;2023-02-28T07:57:56;6.47;;;3.80;;
20870;SDS011;10595;51.218;3.452;2023-02-28T08:00:22;6.40;;;3.33;;
20870;SDS011;10595;51.218;3.452;2023-02-28T08:02:48;3.83;;;3.10;;
20870;SDS011;10595;51.218;3.452;2023-02-28T08:05:14;4.00;;;2.90;;
20870;SDS011;10595;51.218;3.452;2023-02-28T08:07:40;6.17;;;2.90;;
20870;SDS011;10595;51.218;3.452;2023-02-28T08:10:06;5.27;;;2.83;;
20870;SDS011;10595;51.218;3.452;2023-02-28T08:12:34;8.27;;;3.00;;
20870;SDS011;10595;51.218;3.452;2023-02-28T08:15:00;5.50;;;2.70;;
20870;SDS011;10595;51.218;3.452;2023-02-28T08:17:26;5.50;;;3.13;;
20870;SDS011;10595;51.218;3.452;2023-02-28T08:19:52;4.60;;;3.07;;
20870;SDS011;10595;51.218;3.452;2023-02-28T08:22:19;8.50;;;4.00;;
20870;SDS011;10595;51.218;3.452;2023-02-28T08:24:45;5.90;;;3.20;;
20870;SDS011;10595;51.218;3.452;2023-02-28T08:27:11;7.27;;;3.80;;
20870;SDS011;10595;51.218;3.452;2023-02-28T08:29:37;11.97;;;4.30;;
20870;SDS011;10595;51.218;3.452;2023-02-28T08:32:04;17.67;;;5.00;;
20870;SDS011;10595;51.218;3.452;2023-02-28T08:34:30;148.47;;;17.80;;
20870;SDS011;10595;51.218;3.452;2023-02-28T08:36:56;12.37;;;4.13;;
20870;SDS011;10595;51.218;3.452;2023-02-28T08:39:22;5.50;;;3.17;;
20870;SDS011;10595;51.218;3.452;2023-02-28T08:41:48;5.77;;;3.00;;
20870;SDS011;10595;51.218;3.452;2023-02-28T08:44:14;10.40;;;4.30;;
20870;SDS011;10595;51.218;3.452;2023-02-28T08:46:40;6.23;;;3.53;;
20870;SDS011;10595;51.218;3.452;2023-02-28T08:49:06;7.83;;;3.67;;
20870;SDS011;10595;51.218;3.452;2023-02-28T08:51:32;5.03;;;3.27;;
20870;SDS011;10595;51.218;3.452;2023-02-28T08:53:59;5.27;;;3.30;;
20870;SDS011;10595;51.218;3.452;2023-02-28T08:56:25;5.93;;;3.60;;
20870;SDS011;10595;51.218;3.452;2023-02-28T08:58:53;4.87;;;3.40;;
20870;SDS011;10595;51.218;3.452;2023-02-28T09:01:24;5.30;;;3.93;;
20870;SDS011;10595;51.218;3.452;2023-02-28T09:03:51;11.87;;;4.13;;
20870;SDS011;10595;51.218;3.452;2023-02-28T09:06:18;11.33;;;4.27;;
20870;SDS011;10595;51.218;3.452;2023-02-28T09:08:44;7.77;;;4.00;;
20870;SDS011;10595;51.218;3.452;2023-02-28T09:11:10;9.10;;;4.07;;
20870;SDS011;10595;51.218;3.452;2023-02-28T09:13:37;10.07;;;4.50;;
20870;SDS011;10595;51.218;3.452;2023-02-28T09:16:04;6.60;;;3.40;;
20870;SDS011;10595;51.218;3.452;2023-02-28T09:18:30;6.13;;;4.40;;
20870;SDS011;10595;51.218;3.452;2023-02-28T09:20:56;9.93;;;4.57;;
20870;SDS011;10595;51.218;3.452;2023-02-28T09:23:23;7.97;;;3.70;;
20870;SDS011;10595;51.218;3.452;2023-02-28T09:25:50;9.53;;;3.93;;
20870;SDS011;10595;51.218;3.452;2023-02-28T09:28:16;8.23;;;3.97;;
20870;SDS011;10595;51.218;3.452;2023-02-28T09:30:46;5.13;;;3.83;;
20870;SDS011;10595;51.218;3.452;2023-02-28T09:33:13;8.07;;;3.17;;
20870;SDS011;10595;51.218;3.452;2023-02-28T09:35:39;8.30;;;4.53;;
20870;SDS011;10595;51.218;3.452;2023-02-28T09:38:05;4.57;;;3.27;;
20870;SDS011;10595;51.218;3.452;2023-02-28T09:40:34;8.10;;;3.63;;
20870;SDS011;10595;51.218;3.452;2023-02-28T09:43:01;7.13;;;3.70;;
20870;SDS011;10595;51.218;3.452;2023-02-28T09:45:37;7.13;;;3.27;;
20870;SDS011;10595;51.218;3.452;2023-02-28T09:48:14;6.50;;;3.33;;
20870;SDS011;10595;51.218;3.452;2023-02-28T09:50:44;6.37;;;3.40;;
20870;SDS011;10595;51.218;3.452;2023-02-28T09:53:33;9.40;;;3.80;;
20870;SDS011;10595;51.218;3.452;2023-02-28T09:56:02;5.33;;;3.30;;
20870;SDS011;10595;51.218;3.452;2023-02-28T09:58:33;7.40;;;3.37;;
20870;SDS011;10595;51.218;3.452;2023-02-28T10:01:04;7.10;;;3.27;;
20870;SDS011;10595;51.218;3.452;2023-02-28T10:03:35;7.10;;;3.40;;
20870;SDS011;10595;51.218;3.452;2023-02-28T10:06:04;7.67;;;4.07;;
20870;SDS011;10595;51.218;3.452;2023-02-28T10:11:24;7.07;;;3.53;;
20870;SDS011;10595;51.218;3.452;2023-02-28T10:16:59;7.37;;;3.63;;
20870;SDS011;10595;51.218;3.452;2023-02-28T10:19:32;6.50;;;3.60;;
20870;SDS011;10595;51.218;3.452;2023-02-28T10:22:01;5.70;;;3.00;;
20870;SDS011;10595;51.218;3.452;2023-02-28T10:24:45;3.77;;;3.03;;
20870;SDS011;10595;51.218;3.452;2023-02-28T10:27:15;5.43;;;3.60;;
20870;SDS011;10595;51.218;3.452;2023-02-28T10:29:46;4.27;;;3.70;;
20870;SDS011;10595;51.218;3.452;2023-02-28T10:32:14;7.67;;;3.63;;
20870;SDS011;10595;51.218;3.452;2023-02-28T10:34:41;6.83;;;3.50;;
20870;SDS011;10595;51.218;3.452;2023-02-28T10:37:07;7.77;;;3.83;;
20870;SDS011;10595;51.218;3.452;2023-02-28T10:39:37;12.23;;;5.33;;
20870;SDS011;10595;51.218;3.452;2023-02-28T10:42:04;8.37;;;4.50;;
20870;SDS011;10595;51.218;3.452;2023-02-28T10:44:30;5.30;;;3.50;;
20870;SDS011;10595;51.218;3.452;2023-02-28T10:46:56;5.83;;;3.60;;
20870;SDS011;10595;51.218;3.452;2023-02-28T10:49:24;5.73;;;3.60;;
20870;SDS011;10595;51.218;3.452;2023-02-28T10:51:59;4.47;;;3.40;;
20870;SDS011;10595;51.218;3.452;2023-02-28T10:54:30;5.63;;;3.13;;
20870;SDS011;10595;51.218;3.452;2023-02-28T10:57:06;3.53;;;2.90;;
20870;SDS011;10595;51.218;3.452;2023-02-28T10:59:33;5.30;;;3.60;;
20870;SDS011;10595;51.218;3.452;2023-02-28T11:01:59;3.70;;;3.27;;
20870;SDS011;10595;51.218;3.452;2023-02-28T11:06:58;5.50;;;3.20;;
20870;SDS011;10595;51.218;3.452;2023-02-28T11:11:54;4.57;;;2.90;;
20870;SDS011;10595;51.218;3.452;2023-02-28T11:14:30;5.73;;;3.27;;
20870;SDS011;10595;51.218;3.452;2023-02-28T11:16:59;7.73;;;3.10;;
20870;SDS011;10595;51.218;3.452;2023-02-28T11:19:28;5.57;;;2.67;;
20870;SDS011;10595;51.218;3.452;2023-02-28T11:21:57;4.40;;;2.50;;
20870;SDS011;10595;51.218;3.452;2023-02-28T11:24:40;3.33;;;2.43;;
20870;SDS011;10595;51.218;3.452;2023-02-28T11:27:23;5.83;;;2.40;;
20870;SDS011;10595;51.218;3.452;2023-02-28T11:29:50;3.17;;;2.33;;
20870;SDS011;10595;51.218;3.452;2023-02-28T11:32:19;6.10;;;2.20;;
20870;SDS011;10595;51.218;3.452;2023-02-28T11:34:47;2.90;;;2.00;;
20870;SDS011;10595;51.218;3.452;2023-02-28T11:37:25;2.60;;;2.37;;
20870;SDS011;10595;51.218;3.452;2023-02-28T11:39:53;4.87;;;2.47;;
20870;SDS011;10595;51.218;3.452;2023-02-28T11:55:17;3.87;;;2.20;;
20870;SDS011;10595;51.218;3.452;2023-02-28T11:57:54;2.90;;;2.10;;
20870;SDS011;10595;51.218;3.452;2023-02-28T12:07:58;4.23;;;2.40;;
20870;SDS011;10595;51.218;3.452;2023-02-28T12:10:27;3.47;;;2.37;;
20870;SDS011;10595;51.218;3.452;2023-02-28T12:15:36;5.80;;;3.67;;
20870;SDS011;10595;51.218;3.452;2023-02-28T12:18:19;6.20;;;3.30;;
20870;SDS011;10595;51.218;3.452;2023-02-28T12:28:33;3.63;;;2.57;;
20870;SDS011;10595;51.218;3.452;2023-02-28T12:31:04;5.20;;;3.50;;
20870;SDS011;10595;51.218;3.452;2023-02-28T12:33:34;2.90;;;2.67;;
20870;SDS011;10595;51.218;3.452;2023-02-28T12:36:03;5.40;;;3.53;;
20870;SDS011;10595;51.218;3.452;2023-02-28T12:41:00;3.80;;;2.97;;
20870;SDS011;10595;51.218;3.452;2023-02-28T12:43:32;4.23;;;2.83;;
20870;SDS011;10595;51.218;3.452;2023-02-28T12:46:00;4.43;;;3.00;;
20870;SDS011;10595;51.218;3.452;2023-02-28T12:48:31;3.33;;;2.30;;
20870;SDS011;10595;51.218;3.452;2023-02-28T12:50:57;4.67;;;2.27;;
20870;SDS011;10595;51.218;3.452;2023-02-28T12:56:07;2.93;;;2.53;;
20870;SDS011;10595;51.218;3.452;2023-02-28T12:58:39;4.67;;;2.43;;
20870;SDS011;10595;51.218;3.452;2023-02-28T13:11:00;5.23;;;2.50;;
20870;SDS011;10595;51.218;3.452;2023-02-28T13:13:27;3.17;;;2.27;;
20870;SDS011;10595;51.218;3.452;2023-02-28T13:18:28;4.73;;;2.70;;
20870;SDS011;10595;51.218;3.452;2023-02-28T13:20:55;2.85;;;2.50;;
20870;SDS011;10595;51.218;3.452;2023-02-28T13:23:35;3.13;;;2.40;;
20870;SDS011;10595;51.218;3.452;2023-02-28T13:26:03;3.53;;;2.80;;
20870;SDS011;10595;51.218;3.452;2023-02-28T13:31:14;2.30;;;2.00;;
20870;SDS011;10595;51.218;3.452;2023-02-28T13:44:07;2.40;;;1.90;;
20870;SDS011;10595;51.218;3.452;2023-02-28T13:46:35;3.37;;;2.30;;
20870;SDS011;10595;51.218;3.452;2023-02-28T13:51:51;2.37;;;1.87;;
20870;SDS011;10595;51.218;3.452;2023-02-28T13:54:36;3.10;;;2.20;;
20870;SDS011;10595;51.218;3.452;2023-02-28T14:00:20;4.43;;;2.80;;
20870;SDS011;10595;51.218;3.452;2023-02-28T14:02:41;2.30;;;2.10;;
20870;SDS011;10595;51.218;3.452;2023-02-28T14:07:44;2.20;;;1.83;;
20870;SDS011;10595;51.218;3.452;2023-02-28T14:10:21;2.70;;;1.83;;
20870;SDS011;10595;51.218;3.452;2023-02-28T14:12:55;2.20;;;2.00;;
20870;SDS011;10595;51.218;3.452;2023-02-28T14:17:54;3.03;;;2.20;;
20870;SDS011;10595;51.218;3.452;2023-02-28T14:20:21;2.00;;;1.80;;
20870;SDS011;10595;51.218;3.452;2023-02-28T14:25:47;4.40;;;2.10;;
20870;SDS011;10595;51.218;3.452;2023-02-28T14:28:25;4.10;;;1.90;;
20870;SDS011;10595;51.218;3.452;2023-02-28T14:33:25;2.57;;;1.90;;
20870;SDS011;10595;51.218;3.452;2023-02-28T14:36:07;2.77;;;1.80;;
20870;SDS011;10595;51.218;3.452;2023-02-28T14:38:40;3.90;;;2.10;;
20870;SDS011;10595;51.218;3.452;2023-02-28T14:41:12;3.90;;;2.10;;
20870;SDS011;10595;51.218;3.452;2023-02-28T14:43:47;1.83;;;1.73;;
20870;SDS011;10595;51.218;3.452;2023-02-28T14:46:13;2.20;;;2.00;;
20870;SDS011;10595;51.218;3.452;2023-02-28T14:48:39;2.43;;;1.90;;
20870;SDS011;10595;51.218;3.452;2023-02-28T14:51:06;3.73;;;2.33;;
20870;SDS011;10595;51.218;3.452;2023-02-28T14:53:35;3.57;;;2.10;;
20870;SDS011;10595;51.218;3.452;2023-02-28T14:56:02;2.37;;;1.83;;
20870;SDS011;10595;51.218;3.452;2023-02-28T14:58:28;3.07;;;2.07;;
20870;SDS011;10595;51.218;3.452;2023-02-28T15:00:56;4.13;;;1.90;;
20870;SDS011;10595;51.218;3.452;2023-02-28T15:03:33;2.60;;;1.80;;
20870;SDS011;10595;51.218;3.452;2023-02-28T15:06:06;2.77;;;2.50;;
20870;SDS011;10595;51.218;3.452;2023-02-28T15:08:37;6.17;;;2.60;;
20870;SDS011;10595;51.218;3.452;2023-02-28T15:11:04;6.00;;;2.20;;
20870;SDS011;10595;51.218;3.452;2023-02-28T15:13:35;4.43;;;2.20;;
20870;SDS011;10595;51.218;3.452;2023-02-28T15:16:03;2.73;;;1.90;;
20870;SDS011;10595;51.218;3.452;2023-02-28T15:18:31;2.60;;;2.10;;
20870;SDS011;10595;51.218;3.452;2023-02-28T15:21:00;3.13;;;1.97;;
20870;SDS011;10595;51.218;3.452;2023-02-28T15:23:27;5.00;;;2.97;;
20870;SDS011;10595;51.218;3.452;2023-02-28T15:25:54;4.13;;;2.53;;
20870;SDS011;10595;51.218;3.452;2023-02-28T15:28:21;2.40;;;2.00;;
20870;SDS011;10595;51.218;3.452;2023-02-28T15:30:55;4.90;;;2.27;;
20870;SDS011;10595;51.218;3.452;2023-02-28T15:33:26;5.00;;;2.40;;
20870;SDS011;10595;51.218;3.452;2023-02-28T15:36:02;5.17;;;2.70;;
20870;SDS011;10595;51.218;3.452;2023-02-28T15:38:29;2.60;;;2.10;;
20870;SDS011;10595;51.218;3.452;2023-02-28T15:40:56;3.37;;;2.20;;
20870;SDS011;10595;51.218;3.452;2023-02-28T15:43:32;5.37;;;2.40;;
20870;SDS011;10595;51.218;3.452;2023-02-28T15:45:59;3.63;;;2.20;;
20870;SDS011;10595;51.218;3.452;2023-02-28T15:48:27;3.77;;;2.53;;
20870;SDS011;10595;51.218;3.452;2023-02-28T15:50:55;4.63;;;2.47;;
20870;SDS011;10595;51.218;3.452;2023-02-28T15:53:23;2.67;;;2.20;;
20870;SDS011;10595;51.218;3.452;2023-02-28T15:55:54;2.87;;;2.13;;
20870;SDS011;10595;51.218;3.452;2023-02-28T15:58:21;3.10;;;2.40;;
20870;SDS011;10595;51.218;3.452;2023-02-28T16:00:59;3.33;;;2.40;;
20870;SDS011;10595;51.218;3.452;2023-02-28T16:03:26;3.67;;;2.40;;
20870;SDS011;10595;51.218;3.452;2023-02-28T16:08:54;3.17;;;2.50;;
20870;SDS011;10595;51.218;3.452;2023-02-28T16:11:20;2.90;;;2.20;;
20870;SDS011;10595;51.218;3.452;2023-02-28T16:13:46;4.87;;;2.37;;
20870;SDS011;10595;51.218;3.452;2023-02-28T16:16:16;3.50;;;2.47;;
20870;SDS011;10595;51.218;3.452;2023-02-28T16:18:43;3.90;;;2.50;;
20870;SDS011;10595;51.218;3.452;2023-02-28T16:21:09;3.50;;;2.30;;
20870;SDS011;10595;51.218;3.452;2023-02-28T16:23:35;3.07;;;2.40;;
20870;SDS011;10595;51.218;3.452;2023-02-28T16:26:02;4.00;;;2.50;;
20870;SDS011;10595;51.218;3.452;2023-02-28T16:28:33;3.50;;;2.50;;
20870;SDS011;10595;51.218;3.452;2023-02-28T16:31:00;3.67;;;2.40;;
20870;SDS011;10595;51.218;3.452;2023-02-28T16:33:30;4.30;;;2.80;;
20870;SDS011;10595;51.218;3.452;2023-02-28T16:35:56;2.93;;;2.63;;
20870;SDS011;10595;51.218;3.452;2023-02-28T16:38:22;6.57;;;4.13;;
20870;SDS011;10595;51.218;3.452;2023-02-28T16:40:49;4.83;;;3.10;;
20870;SDS011;10595;51.218;3.452;2023-02-28T16:43:17;3.93;;;2.67;;
20870;SDS011;10595;51.218;3.452;2023-02-28T16:45:44;8.23;;;4.27;;
20870;SDS011;10595;51.218;3.452;2023-02-28T16:48:12;9.47;;;5.07;;
20870;SDS011;10595;51.218;3.452;2023-02-28T16:50:39;4.53;;;3.10;;
20870;SDS011;10595;51.218;3.452;2023-02-28T16:53:05;9.10;;;2.93;;
20870;SDS011;10595;51.218;3.452;2023-02-28T16:55:31;4.97;;;2.80;;
20870;SDS011;10595;51.218;3.452;2023-02-28T16:57:59;4.03;;;2.67;;